createdAt,value
2017-09-10T00:01:24.823Z,8.23
2017-09-10T00:03:53.861Z,9.43
2017-09-10T00:06:22.832Z,8.83
2017-09-10T00:08:51.841Z,7.90
2017-09-10T00:11:21.288Z,8.88
2017-09-10T00:13:50.275Z,9.13
2017-09-10T00:16:20.031Z,10.07
2017-09-10T00:18:49.065Z,9.38
2017-09-10T00:21:18.080Z,8.37
2017-09-10T00:23:47.057Z,9.10
2017-09-10T00:26:16.833Z,8.93
2017-09-10T00:28:45.841Z,9.07
2017-09-10T00:31:14.929Z,9.32
2017-09-10T00:33:44.006Z,9.40
2017-09-10T00:36:12.953Z,8.23
2017-09-10T00:38:41.985Z,9.20
2017-09-10T00:41:11.319Z,9.27
2017-09-10T00:43:41.000Z,9.20
2017-09-10T00:46:09.848Z,10.38
2017-09-10T00:48:38.616Z,8.85
2017-09-10T00:51:07.519Z,9.00
2017-09-10T00:53:36.777Z,9.00
2017-09-10T00:56:07.173Z,8.82
2017-09-10T00:58:36.107Z,8.43
2017-09-10T01:01:05.956Z,9.80
2017-09-10T01:03:36.714Z,9.77
2017-09-10T01:06:05.827Z,10.75
2017-09-10T01:08:36.158Z,10.43
2017-09-10T01:11:06.456Z,10.40
2017-09-10T01:13:35.436Z,9.77
2017-09-10T01:16:04.445Z,11.50
2017-09-10T01:18:33.602Z,11.63
2017-09-10T01:21:02.521Z,13.50
2017-09-10T01:23:31.819Z,12.98
2017-09-10T01:26:00.628Z,13.68
2017-09-10T01:28:29.465Z,12.80
2017-09-10T01:30:58.301Z,11.80
2017-09-10T01:33:27.066Z,10.40
2017-09-10T01:35:56.394Z,11.23
2017-09-10T01:38:25.199Z,9.98
2017-09-10T01:40:54.320Z,9.17
2017-09-10T01:43:23.650Z,9.90
2017-09-10T01:45:53.101Z,30.80
2017-09-10T01:48:22.805Z,12.93
2017-09-10T01:50:51.701Z,11.70
2017-09-10T01:53:20.481Z,9.45
2017-09-10T01:55:49.757Z,9.57
2017-09-10T01:58:18.782Z,10.25
2017-09-10T02:00:47.615Z,12.17
2017-09-10T02:03:16.462Z,13.07
2017-09-10T02:05:45.812Z,13.90
2017-09-10T02:08:15.112Z,14.90
2017-09-10T02:10:43.958Z,12.33
2017-09-10T02:13:12.831Z,11.07
2017-09-10T02:15:41.769Z,10.80
2017-09-10T02:18:10.657Z,12.35
2017-09-10T02:20:39.752Z,13.18
2017-09-10T02:23:08.854Z,11.20
2017-09-10T02:25:38.008Z,11.80
2017-09-10T02:28:06.966Z,8.90
2017-09-10T02:30:36.578Z,9.90
2017-09-10T02:33:06.260Z,13.30
2017-09-10T02:35:35.136Z,12.30
2017-09-10T02:38:04.381Z,12.25
2017-09-10T02:40:33.541Z,15.00
2017-09-10T02:43:02.834Z,14.15
2017-09-10T02:45:31.858Z,14.90
2017-09-10T02:48:01.661Z,13.35
2017-09-10T02:50:30.761Z,12.60
2017-09-10T02:53:00.610Z,12.90
2017-09-10T02:55:29.609Z,12.10
2017-09-10T02:57:58.637Z,10.82
2017-09-10T03:00:27.711Z,11.60
2017-09-10T03:02:56.973Z,11.50
2017-09-10T03:05:25.837Z,26.73
2017-09-10T03:07:55.888Z,14.60
2017-09-10T03:10:24.944Z,11.02
2017-09-10T03:12:54.870Z,10.10
2017-09-10T03:15:24.734Z,7.73
2017-09-10T03:17:53.741Z,8.50
2017-09-10T03:20:23.224Z,7.30
2017-09-10T03:22:52.288Z,7.35
2017-09-10T03:25:21.146Z,7.65
2017-09-10T03:27:50.085Z,7.00
2017-09-10T03:30:19.034Z,7.70
2017-09-10T03:32:48.286Z,8.15
2017-09-10T03:35:17.283Z,8.75
2017-09-10T03:37:46.355Z,8.10
2017-09-10T03:40:15.807Z,8.27
2017-09-10T03:42:45.117Z,8.50
2017-09-10T03:45:14.848Z,8.83
2017-09-10T03:47:43.935Z,8.50
2017-09-10T03:50:13.199Z,8.93
2017-09-10T03:52:42.497Z,9.88
2017-09-10T03:55:11.283Z,10.20
2017-09-10T03:57:40.098Z,10.35
2017-09-10T04:00:10.253Z,12.77
2017-09-10T04:02:39.137Z,12.60
2017-09-10T04:05:07.969Z,12.30
2017-09-10T04:07:36.742Z,11.43
2017-09-10T04:10:05.554Z,10.97
2017-09-10T04:12:35.756Z,12.27
2017-09-10T04:15:04.617Z,11.10
2017-09-10T04:17:33.678Z,12.03
2017-09-10T04:20:02.764Z,10.10
2017-09-10T04:22:32.561Z,9.93
2017-09-10T04:25:01.866Z,10.30
2017-09-10T04:27:30.937Z,9.50
2017-09-10T04:30:00.160Z,9.47
2017-09-10T04:32:30.271Z,7.80
2017-09-10T04:34:59.414Z,8.90
2017-09-10T04:37:28.572Z,16.37
2017-09-10T04:39:58.487Z,29.42
2017-09-10T04:42:28.381Z,7.83
2017-09-10T04:44:57.755Z,7.30
2017-09-10T04:47:27.009Z,10.25
2017-09-10T04:49:56.156Z,10.95
2017-09-10T04:52:25.231Z,8.77
2017-09-10T04:54:54.193Z,8.05
2017-09-10T04:57:23.156Z,7.80
2017-09-10T04:59:53.002Z,9.90
2017-09-10T05:02:21.998Z,8.55
2017-09-10T05:04:51.027Z,9.80
2017-09-10T05:07:19.970Z,10.00
2017-09-10T05:09:48.805Z,11.93
2017-09-10T05:12:17.637Z,10.40
2017-09-10T05:14:46.861Z,11.10
2017-09-10T05:17:16.281Z,12.18
2017-09-10T05:19:45.633Z,11.73
2017-09-10T05:22:15.020Z,10.75
2017-09-10T05:24:44.777Z,10.17
2017-09-10T05:27:14.074Z,9.10
2017-09-10T05:29:42.875Z,10.02
2017-09-10T05:32:12.096Z,9.33
2017-09-10T05:34:41.006Z,7.80
2017-09-10T05:37:10.892Z,9.02
2017-09-10T05:39:39.980Z,7.50
2017-09-10T05:42:08.793Z,7.47
2017-09-10T05:44:38.501Z,7.30
2017-09-10T05:47:07.505Z,7.43
2017-09-10T05:49:37.293Z,12.00
2017-09-10T05:52:06.351Z,8.10
2017-09-10T05:54:35.473Z,7.10
2017-09-10T05:57:04.878Z,7.07
2017-09-10T05:59:33.857Z,6.62
2017-09-10T06:02:03.040Z,7.43
2017-09-10T06:04:32.077Z,6.95
2017-09-10T06:07:01.265Z,7.22
2017-09-10T06:09:30.768Z,6.20
2017-09-10T06:11:59.850Z,6.40
2017-09-10T06:14:28.776Z,7.00
2017-09-10T06:16:57.625Z,7.10
2017-09-10T06:19:26.537Z,7.43
2017-09-10T06:21:55.481Z,6.97
2017-09-10T06:24:25.022Z,6.60
2017-09-10T06:26:54.407Z,7.27
2017-09-10T06:29:23.392Z,6.60
2017-09-10T06:31:52.565Z,7.30
2017-09-10T06:34:21.726Z,6.53
2017-09-10T06:36:51.447Z,7.72
2017-09-10T06:39:20.962Z,7.03
2017-09-10T06:41:50.034Z,7.37
2017-09-10T06:44:19.030Z,12.63
2017-09-10T06:46:48.199Z,9.57
2017-09-10T06:49:17.063Z,8.73
2017-09-10T06:51:46.636Z,6.60
2017-09-10T06:54:15.558Z,6.87
2017-09-10T06:56:44.572Z,6.63
2017-09-10T06:59:13.405Z,6.30
2017-09-10T07:01:42.221Z,7.30
2017-09-10T07:04:11.051Z,5.70
2017-09-10T07:06:39.910Z,5.80
2017-09-10T07:09:08.713Z,5.60
2017-09-10T07:11:37.581Z,5.43
2017-09-10T07:14:06.539Z,5.53
2017-09-10T07:16:35.535Z,7.87
2017-09-10T07:19:04.675Z,5.40
2017-09-10T07:21:34.175Z,6.40
2017-09-10T07:24:03.390Z,5.50
2017-09-10T07:26:32.425Z,5.80
2017-09-10T07:29:01.618Z,6.18
2017-09-10T07:31:30.846Z,5.00
2017-09-10T07:34:00.301Z,6.95
2017-09-10T07:36:29.220Z,9.48
2017-09-10T07:38:58.061Z,5.00
2017-09-10T07:41:27.913Z,3.97
2017-09-10T07:43:56.848Z,4.43
2017-09-10T07:46:26.107Z,3.72
2017-09-10T07:48:55.151Z,3.00
2017-09-10T07:51:24.441Z,3.00
2017-09-10T07:53:53.541Z,25.15
2017-09-10T07:56:22.611Z,4.57
2017-09-10T07:58:51.583Z,3.15
2017-09-10T08:01:20.574Z,3.83
2017-09-10T08:03:50.037Z,3.20
2017-09-10T08:06:19.926Z,2.90
2017-09-10T08:08:48.925Z,3.47
2017-09-10T08:11:18.566Z,3.30
2017-09-10T08:13:47.500Z,4.70
2017-09-10T08:16:16.816Z,3.40
2017-09-10T08:18:45.848Z,3.03
2017-09-10T08:21:15.054Z,3.80
2017-09-10T08:23:44.214Z,3.25
2017-09-10T08:26:13.886Z,3.05
2017-09-10T08:28:42.705Z,3.20
2017-09-10T08:31:12.424Z,2.55
2017-09-10T08:33:41.581Z,7.68
2017-09-10T08:36:10.673Z,4.43
2017-09-10T08:38:39.833Z,3.25
2017-09-10T08:41:08.943Z,3.53
2017-09-10T08:43:37.942Z,3.03
2017-09-10T08:46:07.341Z,3.00
2017-09-10T08:48:36.296Z,3.33
2017-09-10T08:51:05.253Z,3.50
2017-09-10T08:53:34.066Z,2.15
2017-09-10T08:56:03.810Z,2.90
2017-09-10T08:58:32.959Z,2.60
2017-09-10T09:01:02.606Z,2.78
2017-09-10T09:03:31.791Z,2.70
2017-09-10T09:06:00.895Z,2.50
2017-09-10T09:08:29.993Z,2.20
2017-09-10T09:10:59.196Z,2.20
2017-09-10T09:13:28.424Z,2.12
2017-09-10T09:15:57.840Z,2.87
2017-09-10T09:18:27.555Z,2.50
2017-09-10T09:20:57.350Z,1.60
2017-09-10T09:23:26.361Z,2.40
2017-09-10T09:25:55.937Z,1.80
2017-09-10T09:28:25.229Z,2.20
2017-09-10T09:30:54.161Z,2.07
2017-09-10T09:33:22.965Z,2.30
2017-09-10T09:35:51.917Z,1.57
2017-09-10T09:38:20.762Z,1.70
2017-09-10T09:40:49.882Z,2.20
2017-09-10T09:43:18.715Z,2.10
2017-09-10T09:47:16.910Z,1.77
2017-09-10T09:49:45.981Z,1.90
2017-09-10T09:52:16.150Z,1.40
2017-09-10T09:54:45.054Z,2.28
2017-09-10T09:57:13.863Z,1.50
2017-09-10T09:59:42.733Z,1.70
2017-09-10T10:02:11.595Z,1.48
2017-09-10T10:04:40.771Z,1.70
2017-09-10T10:07:09.801Z,1.70
2017-09-10T10:09:38.826Z,1.80
2017-09-10T10:12:07.830Z,1.70
2017-09-10T10:14:37.610Z,1.50
2017-09-10T10:17:06.833Z,1.60
2017-09-10T10:21:05.780Z,1.40
2017-09-10T10:23:34.637Z,1.20
2017-09-10T10:26:03.518Z,1.33
2017-09-10T10:28:33.657Z,1.57
2017-09-10T10:31:02.777Z,24.55
2017-09-10T10:33:31.671Z,2.10
2017-09-10T10:36:00.520Z,1.77
2017-09-10T10:38:29.619Z,1.48
2017-09-10T10:40:59.023Z,1.80
2017-09-10T10:43:28.126Z,1.35
2017-09-10T10:45:57.167Z,1.60
2017-09-10T10:48:27.321Z,1.55
2017-09-10T10:50:57.503Z,1.62
2017-09-10T10:53:27.833Z,1.70
2017-09-10T10:55:58.094Z,2.47
2017-09-10T10:58:28.826Z,2.65
2017-09-10T11:00:59.460Z,1.90
2017-09-10T11:03:29.678Z,1.90
2017-09-10T11:06:00.343Z,1.85
2017-09-10T11:08:31.800Z,1.73
2017-09-10T11:11:02.335Z,1.80
2017-09-10T11:13:35.412Z,1.90
2017-09-10T11:16:06.331Z,1.62
2017-09-10T11:18:36.591Z,1.60
2017-09-10T11:21:06.800Z,1.70
2017-09-10T11:23:37.044Z,1.40
2017-09-10T11:26:07.293Z,17.90
2017-09-10T11:28:37.499Z,4.70
2017-09-10T11:31:08.292Z,3.40
2017-09-10T11:33:38.619Z,3.40
2017-09-10T11:36:08.887Z,2.00
2017-09-10T11:38:39.800Z,1.60
2017-09-10T11:41:10.877Z,1.50
2017-09-10T11:43:41.121Z,1.50
2017-09-10T11:46:12.237Z,1.80
2017-09-10T11:48:44.946Z,1.12
2017-09-10T11:51:17.183Z,1.33
2017-09-10T11:53:48.126Z,1.58
2017-09-10T11:56:18.500Z,1.73
2017-09-10T11:58:49.295Z,1.60
2017-09-10T12:01:21.434Z,1.37
2017-09-10T12:03:52.559Z,3.13
2017-09-10T12:06:22.858Z,2.80
2017-09-10T12:08:54.959Z,1.80
2017-09-10T12:11:25.400Z,2.10
2017-09-10T12:13:55.793Z,2.37
2017-09-10T12:16:31.224Z,1.40
2017-09-10T12:19:03.032Z,1.60
2017-09-10T12:21:33.452Z,1.25
2017-09-10T12:24:03.660Z,1.40
2017-09-10T12:26:33.945Z,1.10
2017-09-10T12:29:04.153Z,1.30
2017-09-10T12:31:34.329Z,1.25
2017-09-10T12:34:04.509Z,1.60
2017-09-10T12:36:34.790Z,1.40
2017-09-10T12:39:05.284Z,1.03
2017-09-10T12:41:35.853Z,1.10
2017-09-10T12:44:06.056Z,1.42
2017-09-10T12:46:36.292Z,1.73
2017-09-10T12:49:06.586Z,2.10
2017-09-10T12:51:36.712Z,1.27
2017-09-10T12:54:07.126Z,1.40
2017-09-10T12:56:37.379Z,1.60
2017-09-10T12:59:07.641Z,1.37
2017-09-10T13:01:37.864Z,1.33
2017-09-10T13:04:08.125Z,1.35
2017-09-10T13:06:38.373Z,1.40
2017-09-10T13:09:08.635Z,1.40
2017-09-10T13:11:39.101Z,1.15
2017-09-10T13:14:09.324Z,1.50
2017-09-10T13:16:39.452Z,1.90
2017-09-10T13:19:09.788Z,1.40
2017-09-10T13:21:40.069Z,1.60
2017-09-10T13:24:10.773Z,2.20
2017-09-10T13:26:41.387Z,1.55
2017-09-10T13:29:11.596Z,1.60
2017-09-10T13:31:46.595Z,1.30
2017-09-10T13:34:16.905Z,1.90
2017-09-10T13:36:47.074Z,1.40
2017-09-10T13:39:17.245Z,2.12
2017-09-10T13:41:47.462Z,1.50
2017-09-10T13:44:17.686Z,2.15
2017-09-10T13:46:47.785Z,2.00
2017-09-10T13:49:17.978Z,1.92
2017-09-10T13:51:48.401Z,1.50
2017-09-10T13:54:18.965Z,2.15
2017-09-10T13:56:49.212Z,1.87
2017-09-10T13:59:19.325Z,1.80
2017-09-10T14:01:49.907Z,1.90
2017-09-10T14:04:19.969Z,1.50
2017-09-10T14:06:50.192Z,1.33
2017-09-10T14:09:20.584Z,1.60
2017-09-10T14:11:50.923Z,1.50
2017-09-10T14:14:21.084Z,1.60
2017-09-10T14:16:51.532Z,1.90
2017-09-10T14:19:22.091Z,1.87
2017-09-10T14:21:52.288Z,4.43
2017-09-10T14:24:22.841Z,1.60
2017-09-10T14:26:53.115Z,2.10
2017-09-10T14:29:23.350Z,2.17
2017-09-10T14:31:53.774Z,5.65
2017-09-10T14:34:24.389Z,5.87
2017-09-10T14:36:54.782Z,1.50
2017-09-10T14:39:25.262Z,1.58
2017-09-10T14:41:55.626Z,1.40
2017-09-10T14:44:25.961Z,3.30
2017-09-10T14:46:56.505Z,29.20
2017-09-10T14:49:26.854Z,1.62
2017-09-10T14:51:57.369Z,1.80
2017-09-10T14:54:28.288Z,1.50
2017-09-10T14:56:58.616Z,1.50
2017-09-10T14:59:29.136Z,1.50
2017-09-10T15:01:59.735Z,1.70
2017-09-10T15:04:29.952Z,2.42
2017-09-10T15:07:00.701Z,3.70
2017-09-10T15:09:30.973Z,1.70
2017-09-10T15:12:01.247Z,1.52
2017-09-10T15:14:31.824Z,1.50
2017-09-10T15:17:02.185Z,1.60
2017-09-10T15:19:32.667Z,1.50
2017-09-10T15:22:03.420Z,1.50
2017-09-10T15:24:33.829Z,1.87
2017-09-10T15:27:04.670Z,1.55
2017-09-10T15:29:34.897Z,1.50
2017-09-10T15:32:05.233Z,1.30
2017-09-10T15:34:35.527Z,1.50
2017-09-10T15:37:05.835Z,1.70
2017-09-10T15:39:36.073Z,1.45
2017-09-10T15:42:06.300Z,1.43
2017-09-10T15:44:36.424Z,1.40
2017-09-10T15:47:06.680Z,1.33
2017-09-10T15:49:37.399Z,1.33
2017-09-10T15:52:08.317Z,2.50
2017-09-10T15:54:38.679Z,3.83
2017-09-10T15:57:09.509Z,1.80
2017-09-10T15:59:39.564Z,1.40
2017-09-10T16:02:09.931Z,1.80
2017-09-10T16:04:40.163Z,2.58
2017-09-10T16:07:10.436Z,1.50
2017-09-10T16:09:40.692Z,1.60
2017-09-10T16:12:11.572Z,1.50
2017-09-10T16:14:41.762Z,1.60
2017-09-10T16:17:11.965Z,1.90
2017-09-10T16:19:42.157Z,1.33
2017-09-10T16:22:12.377Z,1.60
2017-09-10T16:24:42.533Z,1.37
2017-09-10T16:27:13.054Z,1.30
2017-09-10T16:29:43.199Z,5.05
2017-09-10T16:32:13.546Z,2.78
2017-09-10T16:34:43.821Z,1.58
2017-09-10T16:37:14.035Z,1.90
2017-09-10T16:39:44.549Z,1.80
2017-09-10T16:42:14.727Z,1.70
2017-09-10T16:44:44.922Z,2.12
2017-09-10T16:47:15.214Z,1.60
2017-09-10T16:49:45.380Z,1.40
2017-09-10T16:52:16.304Z,1.40
2017-09-10T16:54:46.497Z,1.30
2017-09-10T16:57:17.609Z,1.30
2017-09-10T16:59:47.854Z,1.50
2017-09-10T17:02:18.372Z,1.37
2017-09-10T17:04:48.526Z,1.50
2017-09-10T17:07:18.758Z,1.60
2017-09-10T17:09:49.231Z,2.85
2017-09-10T17:12:19.378Z,1.90
2017-09-10T17:14:49.506Z,1.58
2017-09-10T17:17:19.657Z,3.00
2017-09-10T17:19:50.358Z,1.70
2017-09-10T17:22:20.497Z,2.08
2017-09-10T17:24:50.744Z,1.40
2017-09-10T17:27:20.938Z,1.43
2017-09-10T17:29:51.090Z,1.50
2017-09-10T17:32:21.233Z,1.92
2017-09-10T17:34:51.384Z,1.45
2017-09-10T17:37:21.651Z,1.45
2017-09-10T17:39:52.187Z,16.57
2017-09-10T17:42:22.320Z,2.12
2017-09-10T17:44:52.495Z,1.60
2017-09-10T17:47:22.650Z,1.80
2017-09-10T17:49:52.857Z,1.80
2017-09-10T17:52:22.989Z,1.60
2017-09-10T17:54:53.325Z,1.90
2017-09-10T17:57:23.503Z,1.70
2017-09-10T17:59:53.698Z,2.03
2017-09-10T18:02:23.854Z,2.03
2017-09-10T18:04:54.026Z,1.48
2017-09-10T18:07:24.206Z,1.95
2017-09-10T18:09:54.850Z,2.10
2017-09-10T18:12:25.121Z,2.10
2017-09-10T18:14:55.394Z,1.90
2017-09-10T18:17:25.705Z,12.60
2017-09-10T18:19:56.040Z,4.28
2017-09-10T18:22:26.725Z,2.37
2017-09-10T18:24:56.968Z,2.35
2017-09-10T18:27:27.066Z,2.20
2017-09-10T18:29:57.374Z,2.30
2017-09-10T18:32:27.612Z,1.70
2017-09-10T18:34:57.850Z,1.90
2017-09-10T18:37:28.167Z,2.60
2017-09-10T18:39:59.329Z,2.00
2017-09-10T18:42:29.574Z,1.80
2017-09-10T18:44:59.750Z,2.20
2017-09-10T18:47:30.021Z,2.00
2017-09-10T18:50:00.282Z,1.90
2017-09-10T18:52:30.871Z,1.80
2017-09-10T18:55:01.269Z,1.80
2017-09-10T18:57:31.604Z,2.42
2017-09-10T19:00:01.876Z,2.22
2017-09-10T19:02:31.973Z,2.30
2017-09-10T19:05:02.150Z,5.32
2017-09-10T19:07:32.308Z,2.78
2017-09-10T19:10:03.103Z,2.20
2017-09-10T19:12:33.269Z,2.25
2017-09-10T19:15:04.163Z,2.42
2017-09-10T19:17:34.383Z,2.30
2017-09-10T19:20:04.794Z,1.83
2017-09-10T19:22:35.551Z,2.17
2017-09-10T19:25:05.891Z,1.98
2017-09-10T19:27:36.881Z,2.70
2017-09-10T19:30:07.045Z,11.65
2017-09-10T19:32:37.186Z,3.20
2017-09-10T19:35:07.343Z,5.55
2017-09-10T19:37:37.425Z,2.80
2017-09-10T19:40:07.954Z,2.50
2017-09-10T19:42:38.186Z,1.80
2017-09-10T19:45:08.738Z,2.10
2017-09-10T19:47:38.891Z,2.00
2017-09-10T19:50:08.961Z,10.43
2017-09-10T19:52:39.493Z,2.20
2017-09-10T19:55:09.726Z,2.00
2017-09-10T19:57:40.128Z,2.00
2017-09-10T20:00:10.455Z,2.25
2017-09-10T20:02:40.697Z,1.50
2017-09-10T20:05:10.828Z,1.70
2017-09-10T20:07:41.115Z,1.92
2017-09-10T20:10:11.266Z,1.90
2017-09-10T20:12:41.484Z,1.60
2017-09-10T20:15:11.725Z,2.07
2017-09-10T20:17:41.876Z,2.37
2017-09-10T20:20:12.185Z,1.50
2017-09-10T20:22:42.761Z,2.67
2017-09-10T20:25:13.055Z,2.60
2017-09-10T20:27:43.217Z,1.60
2017-09-10T20:30:13.481Z,1.87
2017-09-10T20:32:43.653Z,1.70
2017-09-10T20:35:14.242Z,1.85
2017-09-10T20:37:44.429Z,2.30
2017-09-10T20:40:14.760Z,1.70
2017-09-10T20:42:45.382Z,1.58
2017-09-10T20:45:15.628Z,1.75
2017-09-10T20:47:45.838Z,2.22
2017-09-10T20:50:16.128Z,2.05
2017-09-10T20:52:46.362Z,1.60
2017-09-10T20:55:17.353Z,1.70
2017-09-10T20:57:47.461Z,1.80
2017-09-10T21:00:17.930Z,1.55
2017-09-10T21:02:48.566Z,1.48
2017-09-10T21:05:19.131Z,1.40
2017-09-10T21:07:49.329Z,1.80
2017-09-10T21:10:19.451Z,1.80
2017-09-10T21:12:49.601Z,1.70
2017-09-10T21:15:20.190Z,1.67
2017-09-10T21:17:50.322Z,1.40
2017-09-10T21:20:20.470Z,1.40
2017-09-10T21:22:50.601Z,1.50
2017-09-10T21:25:20.642Z,1.70
2017-09-10T21:27:50.798Z,1.73
2017-09-10T21:30:20.905Z,1.50
2017-09-10T21:32:51.309Z,1.80
2017-09-10T21:35:21.487Z,1.80
2017-09-10T21:37:51.825Z,1.52
2017-09-10T21:40:22.109Z,1.50
2017-09-10T21:42:52.453Z,1.65
2017-09-10T21:45:24.258Z,1.70
2017-09-10T21:47:54.812Z,1.58
2017-09-10T21:50:25.335Z,1.80
2017-09-10T21:52:55.527Z,1.70
2017-09-10T21:55:25.918Z,1.60
2017-09-10T21:57:56.117Z,1.70
2017-09-10T22:00:26.359Z,1.70
2017-09-10T22:02:57.346Z,1.70
2017-09-10T22:05:27.647Z,1.58
2017-09-10T22:07:58.036Z,1.83
2017-09-10T22:10:28.247Z,1.60
2017-09-10T22:12:58.480Z,2.00
2017-09-10T22:15:28.869Z,1.90
2017-09-10T22:17:59.061Z,1.80
2017-09-10T22:20:29.120Z,2.20
2017-09-10T22:22:59.380Z,2.33
2017-09-10T22:25:29.520Z,1.80
2017-09-10T22:27:59.730Z,1.90
2017-09-10T22:30:29.965Z,1.50
2017-09-10T22:33:00.154Z,1.50
2017-09-10T22:35:30.438Z,1.70
2017-09-10T22:38:01.023Z,2.28
2017-09-10T22:40:31.479Z,1.60
2017-09-10T22:43:01.560Z,1.80
2017-09-10T22:45:32.074Z,2.08
2017-09-10T22:48:02.176Z,1.98
2017-09-10T22:50:32.434Z,2.12
2017-09-10T22:53:02.566Z,2.00
2017-09-10T22:55:32.838Z,2.50
2017-09-10T22:58:03.308Z,2.12
2017-09-10T23:00:33.655Z,1.90
2017-09-10T23:03:03.976Z,2.10
2017-09-10T23:05:34.372Z,2.00
2017-09-10T23:08:04.815Z,1.90
2017-09-10T23:10:35.825Z,2.72
2017-09-10T23:13:34.248Z,2.10
2017-09-10T23:16:04.682Z,2.12
2017-09-10T23:18:35.455Z,2.12
2017-09-10T23:21:05.765Z,2.30
2017-09-10T23:23:35.964Z,1.90
2017-09-10T23:26:06.105Z,2.00
2017-09-10T23:28:37.208Z,2.58
2017-09-10T23:31:07.268Z,2.53
2017-09-10T23:33:37.385Z,2.17
2017-09-10T23:36:07.553Z,2.28
2017-09-10T23:38:37.700Z,1.70
2017-09-10T23:41:08.281Z,1.90
2017-09-10T23:43:38.333Z,2.25
2017-09-10T23:46:08.478Z,2.03
2017-09-10T23:48:38.758Z,1.80
2017-09-10T23:51:09.042Z,1.77
2017-09-10T23:53:39.177Z,1.67
2017-09-10T23:56:09.393Z,1.87
2017-09-10T23:58:39.737Z,1.70
